Time;durP1;ratioP1;P1;durP2;ratioP2;P2;SDS_P1;SDS_P2;PMS_P1;PMS_P2;Temp;Humidity;BMP_temperature;BMP_pressure;BME280_temperature;BME280_humidity;BME280_pressure;Samples;Min_cycle;Max_cycle;Signal;HPM_P1;HPM_P2
2023/12/31 00:01:57;;;;;;;0.00;0.00;;;7.60;99.90;;;;;;5052563;28;20216;-66
2023/12/31 00:04:22;;;;;;;0.00;0.00;;;7.60;99.90;;;;;;5056103;28;20679;-67
2023/12/31 00:06:48;;;;;;;0.00;0.00;;;7.60;99.90;;;;;;5054288;28;20188;-67
2023/12/31 00:09:14;;;;;;;0.00;0.00;;;7.50;99.90;;;;;;5052375;28;20298;-67
2023/12/31 00:11:39;;;;;;;0.00;0.00;;;7.50;99.90;;;;;;5051970;28;20182;-67
2023/12/31 00:14:05;;;;;;;0.00;0.00;;;7.50;99.90;;;;;;5052264;28;20632;-67
2023/12/31 00:16:32;;;;;;;0.00;0.00;;;7.50;99.90;;;;;;5052507;28;20190;-66
2023/12/31 00:18:58;;;;;;;0.00;0.00;;;7.50;99.90;;;;;;5051979;28;20658;-65
2023/12/31 00:21:23;;;;;;;0.00;0.00;;;7.50;99.90;;;;;;5051633;28;20260;-66
2023/12/31 00:23:48;;;;;;;0.00;0.00;;;7.40;99.90;;;;;;5052108;28;20181;-65
2023/12/31 00:26:14;;;;;;;0.00;0.00;;;7.30;99.90;;;;;;5052111;28;20192;-65
2023/12/31 00:28:39;;;;;;;0.22;0.22;;;7.30;99.90;;;;;;5053088;28;20813;-67
2023/12/31 00:31:05;;;;;;;0.00;0.00;;;7.30;99.90;;;;;;5049755;28;20213;-67
2023/12/31 00:33:31;;;;;;;0.00;0.00;;;7.20;99.90;;;;;;5049817;28;20186;-66
2023/12/31 00:35:56;;;;;;;0.52;0.52;;;7.20;99.90;;;;;;5054576;28;20260;-67
2023/12/31 00:38:22;;;;;;;0.00;0.00;;;7.20;99.90;;;;;;5051346;28;20200;-67
2023/12/31 00:40:47;;;;;;;0.00;0.00;;;7.10;99.90;;;;;;5050829;28;20221;-66
2023/12/31 00:43:13;;;;;;;0.17;0.17;;;7.10;99.90;;;;;;5049865;28;20197;-67
2023/12/31 00:45:38;;;;;;;0.00;0.00;;;7.00;99.90;;;;;;5051250;28;20231;-67
2023/12/31 00:48:04;;;;;;;0.00;0.00;;;6.90;99.90;;;;;;5049441;28;20270;-66
2023/12/31 00:50:30;;;;;;;0.63;0.63;;;6.90;99.90;;;;;;5050175;28;20221;-66
2023/12/31 00:52:55;;;;;;;0.00;0.00;;;6.80;99.90;;;;;;5050568;28;20184;-66
2023/12/31 00:55:21;;;;;;;0.00;0.00;;;6.70;99.90;;;;;;5051341;28;20217;-67
2023/12/31 00:57:46;;;;;;;0.43;0.43;;;6.70;99.90;;;;;;5051120;28;20256;-66
2023/12/31 01:00:13;;;;;;;0.00;0.00;;;6.60;99.90;;;;;;5050996;28;20181;-67
2023/12/31 01:02:38;;;;;;;0.00;0.00;;;6.60;99.90;;;;;;5050614;28;20184;-67
2023/12/31 01:05:04;;;;;;;0.05;0.05;;;6.60;99.90;;;;;;5058654;28;20208;-67
2023/12/31 01:07:30;;;;;;;0.00;0.00;;;6.50;99.90;;;;;;5050139;28;20223;-68
2023/12/31 01:09:55;;;;;;;0.00;0.00;;;6.40;99.90;;;;;;5051133;28;20271;-67
2023/12/31 01:12:21;;;;;;;0.00;0.00;;;6.40;99.90;;;;;;5049710;28;20223;-67
2023/12/31 01:14:46;;;;;;;0.00;0.00;;;6.40;99.90;;;;;;5050908;28;20183;-67
2023/12/31 01:17:12;;;;;;;0.00;0.00;;;6.30;99.90;;;;;;5050840;28;20613;-67
2023/12/31 01:19:37;;;;;;;0.00;0.00;;;6.30;99.90;;;;;;5050997;28;20189;-67
2023/12/31 01:22:03;;;;;;;0.15;0.15;;;6.20;99.90;;;;;;5050860;28;20182;-67
2023/12/31 01:24:29;;;;;;;0.00;0.00;;;6.20;99.90;;;;;;5050989;28;20222;-67
2023/12/31 01:26:55;;;;;;;0.00;0.00;;;6.20;99.90;;;;;;5052581;28;20189;-69
2023/12/31 01:29:21;;;;;;;0.00;0.00;;;6.20;99.90;;;;;;5053504;28;20209;-67
2023/12/31 01:31:46;;;;;;;0.00;0.00;;;6.20;99.90;;;;;;5050610;28;20212;-67
2023/12/31 01:34:12;;;;;;;0.10;0.10;;;6.30;99.90;;;;;;5052432;28;20536;-67
2023/12/31 01:36:37;;;;;;;0.10;0.10;;;6.30;99.90;;;;;;5056916;28;20182;-67
2023/12/31 01:39:03;;;;;;;0.00;0.00;;;6.30;99.90;;;;;;5050173;28;20202;-67
2023/12/31 01:41:29;;;;;;;0.10;0.10;;;6.40;99.90;;;;;;5050503;28;20232;-66
2023/12/31 01:44:06;;;;;;;0.00;0.00;;;6.30;99.90;;;;;;5050256;28;20177;-66
2023/12/31 01:46:32;;;;;;;0.00;0.00;;;6.30;99.90;;;;;;5049410;28;20243;-67
2023/12/31 01:49:00;;;;;;;0.00;0.00;;;6.30;99.90;;;;;;5050178;28;20620;-66
2023/12/31 01:51:29;;;;;;;0.00;0.00;;;6.30;99.90;;;;;;5049813;28;20700;-67
2023/12/31 01:54:01;;;;;;;0.00;0.00;;;6.30;99.90;;;;;;5050631;28;20204;-67
2023/12/31 01:56:28;;;;;;;0.00;0.00;;;6.40;99.90;;;;;;5050749;28;20181;-67
2023/12/31 01:58:55;;;;;;;0.10;0.10;;;6.60;99.90;;;;;;5050111;28;20260;-67
2023/12/31 02:01:22;;;;;;;0.00;0.00;;;6.70;99.90;;;;;;5050210;28;20190;-66
2023/12/31 02:03:48;;;;;;;0.00;0.00;;;6.70;99.90;;;;;;5050282;28;20227;-67
2023/12/31 02:06:13;;;;;;;0.00;0.00;;;6.80;99.90;;;;;;5050590;28;20182;-67
2023/12/31 02:08:39;;;;;;;0.00;0.00;;;6.80;99.90;;;;;;5050267;28;20181;-66
2023/12/31 02:11:06;;;;;;;0.00;0.00;;;6.80;99.90;;;;;;5049695;28;20235;-66
2023/12/31 02:13:32;;;;;;;0.00;0.00;;;6.90;99.90;;;;;;5050117;28;20667;-66
2023/12/31 02:15:57;;;;;;;0.00;0.00;;;6.90;99.90;;;;;;5053713;28;20190;-67
2023/12/31 02:18:24;;;;;;;0.00;0.00;;;7.00;99.90;;;;;;5053758;28;20216;-68
2023/12/31 02:20:50;;;;;;;0.00;0.00;;;7.00;99.90;;;;;;5054308;28;20200;-67
2023/12/31 02:23:16;;;;;;;0.00;0.00;;;7.00;99.90;;;;;;5052605;28;20182;-67
2023/12/31 02:25:43;;;;;;;0.00;0.00;;;7.00;99.90;;;;;;5054081;28;20181;-67
2023/12/31 02:28:12;;;;;;;0.00;0.00;;;7.00;99.90;;;;;;5053756;28;20507;-67
2023/12/31 02:30:37;;;;;;;0.00;0.00;;;7.00;99.90;;;;;;5052948;28;20239;-67
2023/12/31 02:33:03;;;;;;;0.00;0.00;;;7.00;99.90;;;;;;5053821;28;20250;-67
2023/12/31 02:35:28;;;;;;;0.10;0.10;;;7.00;99.90;;;;;;5063393;28;20597;-67
2023/12/31 02:37:54;;;;;;;0.00;0.00;;;7.10;99.90;;;;;;5054025;28;20174;-67
2023/12/31 02:40:20;;;;;;;0.00;0.00;;;7.20;99.90;;;;;;5053481;28;20577;-68
2023/12/31 02:42:46;;;;;;;0.00;0.00;;;7.20;99.90;;;;;;5053359;28;20265;-67
2023/12/31 02:45:11;;;;;;;0.00;0.00;;;7.30;99.90;;;;;;5053390;28;20189;-68
2023/12/31 02:47:37;;;;;;;0.00;0.00;;;7.30;99.90;;;;;;5053567;28;20173;-67
2023/12/31 02:50:04;;;;;;;0.00;0.00;;;7.40;99.90;;;;;;5053255;28;20720;-66
2023/12/31 02:52:29;;;;;;;0.00;0.00;;;7.40;99.90;;;;;;5053444;28;20173;-67
2023/12/31 02:54:55;;;;;;;0.00;0.00;;;7.50;99.90;;;;;;5052435;28;20268;-67
2023/12/31 02:57:22;;;;;;;0.00;0.00;;;7.50;99.90;;;;;;5052037;28;20243;-66
2023/12/31 02:59:48;;;;;;;0.00;0.00;;;7.60;99.90;;;;;;5053168;28;20178;-66
2023/12/31 03:02:13;;;;;;;0.00;0.00;;;7.60;99.90;;;;;;5053221;28;20515;-66
2023/12/31 03:04:42;;;;;;;0.00;0.00;;;7.60;99.90;;;;;;5059108;28;20648;-67
2023/12/31 03:07:07;;;;;;;0.00;0.00;;;7.70;99.90;;;;;;5057816;28;20184;-67
2023/12/31 03:09:33;;;;;;;0.00;0.00;;;7.60;99.90;;;;;;5053175;28;20561;-67
2023/12/31 03:11:59;;;;;;;0.00;0.00;;;7.70;99.90;;;;;;5053216;28;20232;-67
2023/12/31 03:14:24;;;;;;;0.00;0.00;;;7.60;99.90;;;;;;5052989;28;20531;-67
2023/12/31 03:16:50;;;;;;;0.00;0.00;;;7.60;99.90;;;;;;5051799;28;20189;-67
2023/12/31 03:19:17;;;;;;;0.00;0.00;;;7.60;99.90;;;;;;5051858;28;20255;-67
2023/12/31 03:21:42;;;;;;;0.00;0.00;;;7.60;99.90;;;;;;5052923;28;20215;-67
2023/12/31 03:24:08;;;;;;;0.10;0.10;;;7.60;99.90;;;;;;5053392;28;20604;-67
2023/12/31 03:26:34;;;;;;;0.03;0.00;;;7.60;99.90;;;;;;5052171;28;20567;-67
2023/12/31 03:29:01;;;;;;;0.00;0.00;;;7.60;99.90;;;;;;5051781;28;20181;-67
2023/12/31 03:31:26;;;;;;;0.00;0.00;;;7.60;99.90;;;;;;5052877;28;20217;-67
2023/12/31 03:33:52;;;;;;;0.03;0.03;;;7.60;99.90;;;;;;5047208;28;20170;-67
2023/12/31 03:36:17;;;;;;;0.00;0.00;;;7.60;99.90;;;;;;5064988;28;20201;-67
2023/12/31 03:38:43;;;;;;;0.00;0.00;;;7.60;99.90;;;;;;5052602;28;20268;-67
2023/12/31 03:41:08;;;;;;;0.00;0.00;;;7.70;99.90;;;;;;5052572;28;20221;-67
2023/12/31 03:43:34;;;;;;;0.00;0.00;;;7.70;99.90;;;;;;5051157;28;20208;-68
2023/12/31 03:45:59;;;;;;;0.00;0.00;;;7.70;99.90;;;;;;5052613;28;20174;-67
2023/12/31 03:48:26;;;;;;;0.00;0.00;;;7.70;99.90;;;;;;5052497;28;20181;-68
2023/12/31 03:50:52;;;;;;;0.00;0.00;;;7.60;99.90;;;;;;5029943;28;20221;-67
2023/12/31 03:53:18;;;;;;;0.00;0.00;;;7.60;99.90;;;;;;5051304;28;20201;-67
2023/12/31 03:55:43;;;;;;;0.00;0.00;;;7.60;99.90;;;;;;5052250;28;20185;-67
2023/12/31 03:58:09;;;;;;;0.00;0.00;;;7.60;99.90;;;;;;5052182;28;20649;-67
2023/12/31 04:00:35;;;;;;;0.00;0.00;;;7.60;99.90;;;;;;5052511;28;20184;-67
2023/12/31 04:03:01;;;;;;;0.00;0.00;;;7.60;99.90;;;;;;5052371;28;20540;-67
2023/12/31 04:05:27;;;;;;;0.00;0.00;;;7.60;99.90;;;;;;5052491;28;20231;-67
2023/12/31 04:07:52;;;;;;;0.00;0.00;;;7.60;99.90;;;;;;5050571;28;20182;-67
2023/12/31 04:10:18;;;;;;;0.00;0.00;;;7.60;99.90;;;;;;5052142;28;20213;-67
2023/12/31 04:12:44;;;;;;;0.00;0.00;;;7.60;99.90;;;;;;5051977;28;20268;-67
2023/12/31 04:15:09;;;;;;;0.10;0.10;;;7.60;99.90;;;;;;5052199;28;20193;-67
2023/12/31 04:17:35;;;;;;;1.67;0.63;;;7.60;99.90;;;;;;5051976;28;20186;-67
2023/12/31 04:20:01;;;;;;;0.00;0.00;;;7.70;99.90;;;;;;5050806;28;20220;-67
2023/12/31 04:22:27;;;;;;;0.00;0.00;;;7.70;99.90;;;;;;5051990;28;20185;-67
2023/12/31 04:24:52;;;;;;;0.03;0.03;;;7.70;99.90;;;;;;5051000;28;20648;-67
2023/12/31 04:27:19;;;;;;;0.00;0.00;;;7.70;99.90;;;;;;5051659;28;20196;-68
2023/12/31 04:29:45;;;;;;;0.00;0.00;;;7.70;99.90;;;;;;5051216;28;20205;-67
2023/12/31 04:32:10;;;;;;;0.00;0.00;;;7.70;99.90;;;;;;5051947;28;20192;-67
2023/12/31 04:34:36;;;;;;;0.08;0.08;;;7.80;99.90;;;;;;5053642;28;20185;-67
2023/12/31 04:37:02;;;;;;;0.00;0.00;;;7.80;99.90;;;;;;5051416;28;20188;-68
2023/12/31 04:39:27;;;;;;;0.00;0.00;;;7.90;99.90;;;;;;5051499;28;20671;-67
2023/12/31 04:41:54;;;;;;;0.00;0.00;;;8.00;99.90;;;;;;5051471;28;20173;-67
2023/12/31 04:44:20;;;;;;;0.00;0.00;;;8.10;99.90;;;;;;5051573;28;20637;-67
2023/12/31 04:46:45;;;;;;;0.00;0.00;;;8.20;99.90;;;;;;5051445;28;20204;-67
2023/12/31 04:49:14;;;;;;;0.00;0.00;;;8.30;99.90;;;;;;5051314;28;20231;-67
2023/12/31 04:51:40;;;;;;;0.00;0.00;;;8.40;99.90;;;;;;5051280;28;20212;-67
2023/12/31 04:54:06;;;;;;;0.00;0.00;;;8.40;99.90;;;;;;5051427;28;20177;-67
2023/12/31 04:56:31;;;;;;;0.00;0.00;;;8.40;99.90;;;;;;5051330;28;20206;-68
2023/12/31 04:58:58;;;;;;;0.00;0.00;;;8.50;99.90;;;;;;5049603;28;20186;-67
2023/12/31 05:01:26;;;;;;;0.00;0.00;;;8.50;99.90;;;;;;5050745;28;20166;-67
2023/12/31 05:03:52;;;;;;;0.05;0.05;;;8.60;99.90;;;;;;5049487;28;20216;-67
2023/12/31 05:06:18;;;;;;;0.00;0.00;;;8.70;99.90;;;;;;5052567;28;20209;-67
2023/12/31 05:08:45;;;;;;;0.00;0.00;;;8.70;99.90;;;;;;5050728;28;20188;-66
2023/12/31 05:11:14;;;;;;;0.00;0.00;;;8.70;99.90;;;;;;5051643;28;20242;-67
2023/12/31 05:13:41;;;;;;;0.00;0.00;;;8.70;99.90;;;;;;5050893;28;20172;-67
2023/12/31 05:16:09;;;;;;;0.00;0.00;;;8.70;99.90;;;;;;5050924;28;20527;-67
2023/12/31 05:18:34;;;;;;;0.00;0.00;;;8.80;99.90;;;;;;5050547;28;20186;-67
2023/12/31 05:21:01;;;;;;;0.00;0.00;;;8.80;99.90;;;;;;5050184;28;20177;-65
2023/12/31 05:23:27;;;;;;;0.00;0.00;;;8.80;99.90;;;;;;5049904;28;20184;-66
2023/12/31 05:25:53;;;;;;;0.10;0.10;;;8.80;99.90;;;;;;5050485;28;20284;-67
2023/12/31 05:28:19;;;;;;;0.00;0.00;;;8.80;99.90;;;;;;5050183;28;20268;-67
2023/12/31 05:30:44;;;;;;;0.00;0.00;;;8.80;99.90;;;;;;5050365;28;20274;-66
2023/12/31 05:33:13;;;;;;;0.00;0.00;;;8.80;99.90;;;;;;5050846;28;20181;-66
2023/12/31 05:35:39;;;;;;;0.00;0.00;;;8.80;99.90;;;;;;5058506;28;20173;-67
2023/12/31 05:38:04;;;;;;;0.00;0.00;;;8.90;99.90;;;;;;5050115;28;20274;-67
2023/12/31 05:40:30;;;;;;;0.00;0.00;;;8.90;99.90;;;;;;5049860;28;20221;-67
2023/12/31 05:42:56;;;;;;;0.00;0.00;;;8.80;99.90;;;;;;5049215;28;20212;-66
2023/12/31 05:45:21;;;;;;;0.00;0.00;;;8.80;99.90;;;;;;5050215;28;20220;-67
2023/12/31 05:47:47;;;;;;;0.00;0.00;;;8.80;99.90;;;;;;5049231;28;20185;-67
2023/12/31 05:50:16;;;;;;;0.00;0.00;;;8.70;99.90;;;;;;5049332;28;20229;-66
2023/12/31 05:52:42;;;;;;;0.00;0.00;;;8.70;99.90;;;;;;5050308;28;20205;-67
2023/12/31 05:55:08;;;;;;;0.00;0.00;;;8.60;99.90;;;;;;5050097;28;20284;-66
2023/12/31 05:57:34;;;;;;;0.00;0.00;;;8.60;99.90;;;;;;5050029;28;20252;-67
2023/12/31 06:00:00;;;;;;;0.00;0.00;;;8.60;99.90;;;;;;5049386;28;20285;-68
2023/12/31 06:02:25;;;;;;;0.00;0.00;;;8.60;99.90;;;;;;5049641;28;20260;-67
2023/12/31 06:04:51;;;;;;;0.00;0.00;;;8.60;99.90;;;;;;5050819;28;20208;-65
2023/12/31 06:07:17;;;;;;;0.00;0.00;;;8.70;99.90;;;;;;5049260;28;20659;-65
2023/12/31 06:09:42;;;;;;;0.00;0.00;;;8.70;99.90;;;;;;5053204;28;20730;-66
2023/12/31 06:12:08;;;;;;;0.00;0.00;;;8.70;99.90;;;;;;5052556;28;20231;-67
2023/12/31 06:14:33;;;;;;;0.00;0.00;;;8.80;99.90;;;;;;5052558;28;20180;-67
2023/12/31 06:16:59;;;;;;;0.00;0.00;;;8.80;99.90;;;;;;5052052;28;20186;-68
2023/12/31 06:19:25;;;;;;;0.00;0.00;;;8.80;99.90;;;;;;5049863;28;20629;-67
2023/12/31 06:21:51;;;;;;;0.00;0.00;;;8.90;99.90;;;;;;5050258;28;20182;-67
2023/12/31 06:24:17;;;;;;;0.00;0.00;;;8.90;99.90;;;;;;5051249;28;20196;-67
2023/12/31 06:26:42;;;;;;;0.00;0.00;;;8.90;99.90;;;;;;5051953;28;20183;-67
2023/12/31 06:29:08;;;;;;;0.00;0.00;;;8.90;99.90;;;;;;5052979;28;20177;-67
2023/12/31 06:31:33;;;;;;;0.00;0.00;;;8.90;99.90;;;;;;5052763;28;20283;-67
2023/12/31 06:33:59;;;;;;;0.00;0.00;;;8.90;99.90;;;;;;5052812;28;20656;-67
2023/12/31 06:36:24;;;;;;;0.00;0.00;;;8.90;99.90;;;;;;5050260;28;20192;-67
2023/12/31 06:38:50;;;;;;;0.00;0.00;;;8.90;99.90;;;;;;5049993;28;20177;-67
2023/12/31 06:41:19;;;;;;;0.00;0.00;;;8.90;99.90;;;;;;5049494;28;20229;-67
2023/12/31 06:43:44;;;;;;;0.00;0.00;;;8.90;99.90;;;;;;5048241;28;20273;-66
2023/12/31 06:46:10;;;;;;;0.00;0.00;;;8.90;99.90;;;;;;5049527;28;20272;-67
2023/12/31 06:48:36;;;;;;;0.00;0.00;;;8.90;99.90;;;;;;5049551;28;20228;-67
2023/12/31 06:51:01;;;;;;;0.00;0.00;;;8.90;99.90;;;;;;5047784;28;20243;-66
2023/12/31 06:53:27;;;;;;;0.00;0.00;;;8.90;99.90;;;;;;5049902;28;20253;-66
2023/12/31 06:55:52;;;;;;;0.00;0.00;;;8.90;99.90;;;;;;5049816;28;20216;-67
2023/12/31 06:58:18;;;;;;;0.00;0.00;;;8.80;99.90;;;;;;5049945;28;20177;-66
2023/12/31 07:00:43;;;;;;;0.00;0.00;;;8.80;99.90;;;;;;5048483;28;20637;-67
2023/12/31 07:03:09;;;;;;;0.00;0.00;;;8.90;99.90;;;;;;5053314;28;20178;-66
2023/12/31 07:05:34;;;;;;;0.00;0.00;;;8.90;99.90;;;;;;5053843;28;20188;-67
2023/12/31 07:08:01;;;;;;;0.00;0.00;;;8.90;99.90;;;;;;5053057;28;20174;-67
2023/12/31 07:10:26;;;;;;;0.00;0.00;;;8.90;99.90;;;;;;5053383;28;20243;-66
2023/12/31 07:12:52;;;;;;;0.00;0.00;;;8.90;99.90;;;;;;5053477;28;20525;-67
2023/12/31 07:15:18;;;;;;;0.00;0.00;;;8.90;99.90;;;;;;5053085;28;20185;-67
2023/12/31 07:17:44;;;;;;;0.00;0.00;;;9.00;99.90;;;;;;5051600;28;20191;-66
2023/12/31 07:20:11;;;;;;;0.00;0.00;;;9.00;99.90;;;;;;5052709;28;20543;-67
2023/12/31 07:22:38;;;;;;;0.00;0.00;;;9.00;99.90;;;;;;5051831;28;20564;-67
2023/12/31 07:25:05;;;;;;;0.00;0.00;;;9.00;99.90;;;;;;5052230;28;20700;-67
2023/12/31 07:27:30;;;;;;;0.00;0.00;;;9.00;99.90;;;;;;5052652;28;20570;-67
2023/12/31 07:29:56;;;;;;;0.00;0.00;;;9.00;99.90;;;;;;5052734;28;20280;-67
2023/12/31 07:32:22;;;;;;;0.00;0.00;;;9.00;99.90;;;;;;5052766;28;20657;-67
2023/12/31 07:34:47;;;;;;;0.00;0.00;;;9.00;99.90;;;;;;5053055;28;20178;-68
2023/12/31 07:37:13;;;;;;;0.00;0.00;;;9.00;99.90;;;;;;5052308;28;20590;-67
2023/12/31 07:39:41;;;;;;;0.00;0.00;;;9.00;99.90;;;;;;5052926;28;20319;-67
2023/12/31 07:42:06;;;;;;;0.00;0.00;;;8.90;99.90;;;;;;5053239;28;20563;-68
2023/12/31 07:44:32;;;;;;;0.00;0.00;;;9.00;99.90;;;;;;5052874;28;20197;-68
2023/12/31 07:46:58;;;;;;;0.00;0.00;;;8.90;99.90;;;;;;5052768;28;20193;-68
2023/12/31 07:49:24;;;;;;;0.00;0.00;;;8.90;99.90;;;;;;5052636;28;20177;-68
2023/12/31 07:51:50;;;;;;;0.00;0.00;;;8.90;99.90;;;;;;5052793;28;20181;-67
2023/12/31 07:54:16;;;;;;;0.00;0.00;;;9.10;99.90;;;;;;5052862;28;20185;-67
2023/12/31 07:56:41;;;;;;;0.00;0.00;;;9.00;99.90;;;;;;5052360;28;20192;-67
2023/12/31 07:59:07;;;;;;;0.00;0.00;;;9.10;99.90;;;;;;5052405;28;20181;-67
2023/12/31 08:01:33;;;;;;;0.88;0.88;;;9.10;99.90;;;;;;5052514;28;20544;-68
2023/12/31 08:03:58;;;;;;;0.25;0.25;;;9.10;99.90;;;;;;5051963;28;20539;-68
2023/12/31 08:06:24;;;;;;;0.00;0.00;;;9.20;99.90;;;;;;5052111;28;20178;-68
2023/12/31 08:08:50;;;;;;;0.00;0.00;;;9.10;99.90;;;;;;5051056;28;20612;-67
2023/12/31 08:11:15;;;;;;;0.00;0.00;;;9.20;99.80;;;;;;5052286;28;20213;-68
2023/12/31 08:13:41;;;;;;;0.00;0.00;;;9.20;98.90;;;;;;5050264;28;20259;-68
2023/12/31 08:16:07;;;;;;;0.00;0.00;;;9.40;97.70;;;;;;5052026;28;20177;-67
2023/12/31 08:18:34;;;;;;;0.00;0.00;;;9.60;97.20;;;;;;5051856;28;20177;-67
2023/12/31 08:21:00;;;;;;;0.00;0.00;;;9.80;96.40;;;;;;5051906;28;20605;-68
2023/12/31 08:23:25;;;;;;;0.00;0.00;;;10.10;95.00;;;;;;5051799;28;20220;-68
2023/12/31 08:25:51;;;;;;;0.00;0.00;;;10.30;94.90;;;;;;5051901;28;20192;-68
2023/12/31 08:28:16;;;;;;;0.00;0.00;;;10.40;94.90;;;;;;5051773;28;20182;-68
2023/12/31 08:30:43;;;;;;;0.00;0.00;;;10.50;94.30;;;;;;5051258;28;20209;-68
2023/12/31 08:33:09;;;;;;;0.00;0.00;;;10.60;93.60;;;;;;5051687;28;20180;-67
2023/12/31 08:35:34;;;;;;;0.00;0.00;;;10.70;93.20;;;;;;5051807;28;20278;-67
2023/12/31 08:38:00;;;;;;;0.00;0.00;;;10.80;93.50;;;;;;5049920;28;20178;-66
2023/12/31 08:40:25;;;;;;;0.00;0.00;;;10.90;93.50;;;;;;5051004;28;20259;-67
2023/12/31 08:42:51;;;;;;;0.00;0.00;;;10.90;93.00;;;;;;5050641;28;20548;-66
2023/12/31 08:45:17;;;;;;;0.10;0.10;;;10.90;93.00;;;;;;5051691;28;20196;-67
2023/12/31 08:47:43;;;;;;;0.00;0.00;;;10.90;93.10;;;;;;5051855;28;20641;-67
2023/12/31 08:50:09;;;;;;;0.00;0.00;;;11.00;93.10;;;;;;5051194;28;20232;-67
2023/12/31 08:52:40;;;;;;;0.00;0.00;;;11.00;92.90;;;;;;5051757;28;20661;-67
2023/12/31 08:55:07;;;;;;;0.00;0.00;;;11.00;93.00;;;;;;5036692;28;20188;-67
2023/12/31 08:57:33;;;;;;;0.00;0.00;;;11.10;93.00;;;;;;5051493;28;20185;-68
2023/12/31 08:59:59;;;;;;;0.00;0.00;;;11.10;93.10;;;;;;5051272;28;20664;-67
2023/12/31 09:02:24;;;;;;;0.00;0.00;;;11.10;93.00;;;;;;5051353;28;20185;-67
2023/12/31 09:04:50;;;;;;;0.00;0.00;;;11.20;93.00;;;;;;5050680;28;20208;-67
2023/12/31 09:07:15;;;;;;;0.00;0.00;;;11.20;93.00;;;;;;5049393;28;20196;-67
2023/12/31 09:09:42;;;;;;;0.10;0.10;;;11.30;93.10;;;;;;5050496;28;20285;-67
2023/12/31 09:12:07;;;;;;;0.00;0.00;;;11.30;93.10;;;;;;5051322;28;20193;-66
2023/12/31 09:14:33;;;;;;;0.00;0.00;;;11.30;93.10;;;;;;5050836;28;20730;-66
2023/12/31 09:16:58;;;;;;;0.00;0.00;;;11.40;92.50;;;;;;5050561;28;20174;-67
2023/12/31 09:19:24;;;;;;;0.00;0.00;;;11.40;92.70;;;;;;5050885;28;20190;-66
2023/12/31 09:21:50;;;;;;;0.00;0.00;;;11.40;92.40;;;;;;5051058;28;20188;-64
2023/12/31 09:24:15;;;;;;;0.00;0.00;;;11.50;92.60;;;;;;5050524;28;20185;-65
2023/12/31 09:26:41;;;;;;;0.00;0.00;;;11.50;92.60;;;;;;5049599;28;20189;-64
2023/12/31 09:29:06;;;;;;;0.08;0.08;;;11.40;92.40;;;;;;5050908;28;20182;-63
2023/12/31 09:31:33;;;;;;;0.00;0.00;;;11.40;92.60;;;;;;5050985;28;20259;-63
2023/12/31 09:33:59;;;;;;;0.00;0.00;;;11.40;92.60;;;;;;5050828;28;20226;-68
2023/12/31 09:36:25;;;;;;;0.00;0.00;;;11.40;93.00;;;;;;5050953;28;20577;-63
2023/12/31 09:38:51;;;;;;;0.20;0.20;;;11.40;93.00;;;;;;5050494;28;20182;-66
2023/12/31 09:41:23;;;;;;;0.00;0.00;;;11.40;93.00;;;;;;5050932;28;20217;-65
2023/12/31 09:43:51;;;;;;;0.00;0.00;;;11.40;93.00;;;;;;5050728;28;20526;-67
2023/12/31 09:46:21;;;;;;;0.00;0.00;;;11.50;92.80;;;;;;5049863;28;20268;-67
2023/12/31 09:48:50;;;;;;;0.00;0.00;;;11.50;92.80;;;;;;5050934;28;20173;-68
2023/12/31 09:51:19;;;;;;;0.00;0.00;;;11.60;92.70;;;;;;5050783;28;20248;-66
2023/12/31 09:53:46;;;;;;;0.00;0.00;;;11.60;92.80;;;;;;5050842;28;20290;-66
2023/12/31 09:56:13;;;;;;;0.00;0.00;;;11.60;92.70;;;;;;5050309;28;20181;-67
2023/12/31 09:58:39;;;;;;;0.00;0.00;;;11.60;92.90;;;;;;5049436;28;20268;-67
2023/12/31 10:01:04;;;;;;;0.00;0.00;;;11.70;92.70;;;;;;5050776;28;20311;-67
2023/12/31 10:03:30;;;;;;;0.00;0.00;;;11.60;92.70;;;;;;5050847;28;20181;-66
2023/12/31 10:05:56;;;;;;;0.00;0.00;;;11.70;92.70;;;;;;5052438;28;20590;-65
2023/12/31 10:08:23;;;;;;;0.00;0.00;;;11.70;92.80;;;;;;5050778;28;20177;-66
2023/12/31 10:10:53;;;;;;;0.10;0.10;;;11.70;92.90;;;;;;5050689;28;20213;-66
2023/12/31 10:13:19;;;;;;;0.00;0.00;;;11.70;92.60;;;;;;5050788;28;20189;-66
2023/12/31 10:15:45;;;;;;;0.00;0.00;;;11.80;92.90;;;;;;5050423;28;20185;-66
2023/12/31 10:18:11;;;;;;;0.00;0.00;;;11.70;92.50;;;;;;5050785;28;20192;-66
2023/12/31 10:20:38;;;;;;;0.00;0.00;;;11.70;92.50;;;;;;5050666;28;20260;-66
2023/12/31 10:23:04;;;;;;;0.00;0.00;;;11.60;92.30;;;;;;5050239;28;20590;-66
2023/12/31 10:25:30;;;;;;;0.00;0.00;;;11.60;92.50;;;;;;5049833;28;20213;-67
2023/12/31 10:27:56;;;;;;;0.00;0.00;;;11.50;92.70;;;;;;5050486;28;20213;-67
2023/12/31 10:30:22;;;;;;;0.00;0.00;;;11.50;92.60;;;;;;5048726;28;20213;-66
2023/12/31 10:32:51;;;;;;;0.08;0.08;;;11.50;92.60;;;;;;5049109;28;20209;-67
2023/12/31 10:35:21;;;;;;;0.00;0.00;;;11.50;92.60;;;;;;5049322;28;20683;-67
2023/12/31 10:37:47;;;;;;;0.00;0.00;;;11.50;92.70;;;;;;5049749;28;20181;-67
2023/12/31 10:40:20;;;;;;;0.00;0.00;;;11.50;92.60;;;;;;5053882;28;20221;-67
2023/12/31 10:42:48;;;;;;;0.00;0.00;;;11.50;92.60;;;;;;5053554;28;20189;-69
2023/12/31 10:45:18;;;;;;;0.00;0.00;;;11.50;92.20;;;;;;5045710;28;20235;-67
2023/12/31 10:47:45;;;;;;;0.00;0.00;;;11.50;92.40;;;;;;5052718;28;20261;-68
2023/12/31 10:50:16;;;;;;;0.00;0.00;;;11.50;92.40;;;;;;5054207;28;20267;-68
2023/12/31 10:52:43;;;;;;;0.00;0.00;;;11.60;92.80;;;;;;5054255;28;20187;-67
2023/12/31 10:55:13;;;;;;;0.00;0.00;;;11.50;93.50;;;;;;5053854;28;20173;-67
2023/12/31 10:57:42;;;;;;;0.00;0.00;;;11.50;93.90;;;;;;5053935;28;20264;-67
2023/12/31 11:00:10;;;;;;;0.00;0.00;;;11.50;94.70;;;;;;5054025;28;20182;-68
2023/12/31 11:02:36;;;;;;;0.00;0.00;;;11.50;94.60;;;;;;5052985;28;20181;-69
2023/12/31 11:05:03;;;;;;;0.00;0.00;;;11.50;94.60;;;;;;5059319;28;20211;-69
2023/12/31 11:07:29;;;;;;;0.00;0.00;;;11.50;94.50;;;;;;5053324;28;20174;-68
2023/12/31 11:09:57;;;;;;;0.00;0.00;;;11.40;95.20;;;;;;5052030;28;20266;-68
2023/12/31 11:12:23;;;;;;;0.05;0.05;;;11.40;95.20;;;;;;5052850;28;20194;-67
2023/12/31 11:14:54;;;;;;;0.00;0.00;;;11.30;96.80;;;;;;5053315;28;20186;-67
2023/12/31 11:17:50;;;;;;;0.00;0.00;;;10.80;99.90;;;;;;5052584;28;20798;-67
2023/12/31 11:20:27;;;;;;;0.00;0.00;;;10.30;99.90;;;;;;5053886;28;20174;-67
2023/12/31 11:23:13;;;;;;;0.00;0.00;;;9.70;99.90;;;;;;5053656;28;20633;-69
2023/12/31 11:25:38;;;;;;;0.00;0.00;;;9.30;99.90;;;;;;5053542;28;20200;-67
2023/12/31 11:28:06;;;;;;;0.00;0.00;;;9.00;99.90;;;;;;5053070;28;20177;-68
2023/12/31 11:30:51;;;;;;;0.10;0.10;;;8.80;99.90;;;;;;5053164;28;20696;-67
2023/12/31 11:33:24;;;;;;;0.00;0.00;;;8.70;99.90;;;;;;5053245;28;20186;-69
2023/12/31 11:35:52;;;;;;;0.00;0.00;;;8.60;99.90;;;;;;5068668;28;20181;-67
2023/12/31 11:38:19;;;;;;;0.10;0.10;;;8.60;99.90;;;;;;5063517;28;20239;-69
2023/12/31 11:40:44;;;;;;;0.00;0.00;;;8.50;99.90;;;;;;5052910;28;20209;-69
2023/12/31 11:43:19;;;;;;;0.00;0.00;;;8.40;99.90;;;;;;5053243;28;20196;-69
2023/12/31 11:45:47;;;;;;;0.00;0.00;;;8.30;99.90;;;;;;5053008;28;20191;-68
2023/12/31 11:48:24;;;;;;;0.00;0.00;;;8.30;99.90;;;;;;5052409;28;20231;-68
2023/12/31 11:50:50;;;;;;;0.20;0.20;;;8.20;99.90;;;;;;5053078;28;20231;-69
2023/12/31 11:53:16;;;;;;;0.00;0.00;;;8.20;99.90;;;;;;5053137;28;20180;-69
2023/12/31 11:55:45;;;;;;;0.15;0.15;;;8.10;99.90;;;;;;5050823;28;21002;-69
2023/12/31 11:58:10;;;;;;;0.00;0.00;;;8.10;99.90;;;;;;5052462;28;20189;-69
2023/12/31 12:00:37;;;;;;;0.00;0.00;;;8.10;99.90;;;;;;5052461;28;20173;-68
2023/12/31 12:03:03;;;;;;;0.10;0.10;;;8.10;99.90;;;;;;5052595;28;20212;-68
2023/12/31 12:05:28;;;;;;;0.00;0.00;;;8.10;99.90;;;;;;5065089;28;20216;-68
2023/12/31 12:07:54;;;;;;;0.00;0.00;;;8.10;99.90;;;;;;5072800;28;20207;-68
2023/12/31 12:10:21;;;;;;;0.00;0.00;;;8.10;99.90;;;;;;5072880;28;20220;-69
2023/12/31 12:12:47;;;;;;;0.00;0.00;;;8.20;99.90;;;;;;5072744;28;20187;-68
2023/12/31 12:15:12;;;;;;;0.00;0.00;;;8.20;99.90;;;;;;5052940;28;20268;-68
2023/12/31 12:17:38;;;;;;;0.00;0.00;;;8.20;99.90;;;;;;5052749;28;20186;-67
2023/12/31 12:20:06;;;;;;;0.10;0.10;;;8.20;99.90;;;;;;5051850;28;20209;-68
2023/12/31 12:22:32;;;;;;;0.00;0.00;;;8.20;99.90;;;;;;5052506;28;20188;-68
2023/12/31 12:24:58;;;;;;;0.00;0.00;;;8.20;99.90;;;;;;5052341;28;20189;-68
2023/12/31 12:27:23;;;;;;;0.00;0.00;;;8.20;99.90;;;;;;5052372;28;20173;-68
2023/12/31 12:29:49;;;;;;;0.00;0.00;;;8.20;99.90;;;;;;5051828;28;20208;-69
2023/12/31 12:32:18;;;;;;;0.00;0.00;;;8.20;99.90;;;;;;5052230;28;20181;-68
2023/12/31 12:34:50;;;;;;;0.00;0.00;;;8.20;99.90;;;;;;5057066;28;20211;-69
2023/12/31 12:37:15;;;;;;;0.00;0.00;;;8.20;99.90;;;;;;5072322;28;20583;-68
2023/12/31 12:39:41;;;;;;;0.00;0.00;;;8.20;99.90;;;;;;5060007;28;20359;-68
2023/12/31 12:42:08;;;;;;;0.00;0.00;;;8.20;99.90;;;;;;5052070;28;20184;-68
2023/12/31 12:44:35;;;;;;;0.00;0.00;;;8.20;99.90;;;;;;5051764;28;20539;-69
2023/12/31 12:47:02;;;;;;;0.00;0.00;;;8.20;99.90;;;;;;5050712;28;20184;-68
2023/12/31 12:49:27;;;;;;;0.45;0.45;;;8.20;99.90;;;;;;5050433;28;20248;-67
2023/12/31 12:51:53;;;;;;;0.00;0.00;;;8.20;99.90;;;;;;5051852;28;20614;-68